Time;durP1;ratioP1;P1;durP2;ratioP2;P2;SDS_P1;SDS_P2;PMS_P1;PMS_P2;Temp;Humidity;BMP_temperature;BMP_pressure;BME280_temperature;BME280_humidity;BME280_pressure;Samples;Min_cycle;Max_cycle;Signal;HPM_P1;HPM_P2
2022/01/08 00:00:11;;;;;;;;;;;;;;;10.58;44.98;101073.09;5047674;28;19973;-83
2022/01/08 00:02:37;;;;;;;;;;;;;;;10.54;45.90;101085.03;5046961;28;20015;-83
2022/01/08 00:05:02;;;;;;;;;;;;;;;10.68;45.35;101081.72;5065190;28;19939;-83
2022/01/08 00:07:28;;;;;;;;;;;;;;;10.64;44.96;101079.16;5047881;28;19932;-83
2022/01/08 00:09:53;;;;;;;;;;;;;;;10.75;44.57;101083.19;5047367;28;19921;-83
2022/01/08 00:12:18;;;;;;;;;;;;;;;10.82;44.37;101084.66;5045626;28;19917;-83
2022/01/08 00:14:44;;;;;;;;;;;;;;;10.67;44.72;101091.63;5044610;28;20343;-83
2022/01/08 00:17:09;;;;;;;;;;;;;;;10.60;44.49;101091.03;5044927;28;19924;-83
2022/01/08 00:19:34;;;;;;;;;;;;;;;10.81;44.37;101082.94;5062971;28;19923;-83
2022/01/08 00:21:59;;;;;;;;;;;;;;;10.90;43.75;101087.03;5045179;28;19916;-83
2022/01/08 00:24:25;;;;;;;;;;;;;;;10.57;44.20;101102.00;5044959;28;19943;-83
2022/01/08 00:26:50;;;;;;;;;;;;;;;10.34;45.20;101102.09;5045421;28;19916;-82
2022/01/08 00:29:15;;;;;;;;;;;;;;;10.50;44.82;101100.50;5060352;28;19917;-82
2022/01/08 00:31:41;;;;;;;;;;;;;;;10.72;44.55;101096.84;5041183;28;19928;-83
2022/01/08 00:34:07;;;;;;;;;;;;;;;10.80;43.99;101095.56;5041802;28;19924;-83
2022/01/08 00:36:32;;;;;;;;;;;;;;;10.42;44.80;101102.66;5044090;28;19951;-83
2022/01/08 00:38:57;;;;;;;;;;;;;;;10.42;44.87;101099.97;5045984;28;19923;-83
2022/01/08 00:41:22;;;;;;;;;;;;;;;10.64;44.31;101099.91;5042758;28;19925;-83
2022/01/08 00:43:48;;;;;;;;;;;;;;;10.40;44.98;101104.53;5042878;28;20011;-83
2022/01/08 00:46:13;;;;;;;;;;;;;;;10.56;44.44;101099.38;5042202;28;20012;-83
2022/01/08 00:48:38;;;;;;;;;;;;;;;10.32;45.23;101095.84;5042875;28;19967;-82
2022/01/08 00:51:03;;;;;;;;;;;;;;;10.55;44.45;101090.38;5042828;28;20003;-82
2022/01/08 00:53:28;;;;;;;;;;;;;;;10.48;44.63;101082.56;5043109;28;19917;-83
2022/01/08 00:55:54;;;;;;;;;;;;;;;10.40;45.04;101105.44;5043339;28;19917;-83
2022/01/08 00:58:19;;;;;;;;;;;;;;;10.41;45.09;101095.50;5044272;28;19924;-84
2022/01/08 01:00:45;;;;;;;;;;;;;;;10.15;45.34;101094.75;5041728;28;20359;-88
2022/01/08 01:03:11;;;;;;;;;;;;;;;10.08;45.98;101098.63;5043001;28;19974;-83
2022/01/08 01:05:36;;;;;;;;;;;;;;;10.21;45.52;101099.03;5041911;28;19917;-82
2022/01/08 01:08:01;;;;;;;;;;;;;;;10.05;45.42;101098.75;5042218;28;20386;-83
2022/01/08 01:10:27;;;;;;;;;;;;;;;10.35;45.13;101101.16;5042942;28;19924;-82
2022/01/08 01:12:52;;;;;;;;;;;;;;;10.22;45.39;101123.28;5042065;28;19924;-83
2022/01/08 01:15:17;;;;;;;;;;;;;;;10.18;45.37;101107.25;5041485;28;19920;-83
2022/01/08 01:17:44;;;;;;;;;;;;;;;9.94;45.83;101102.78;5042453;28;19917;-82
2022/01/08 01:20:10;;;;;;;;;;;;;;;9.78;46.32;101104.34;5041287;28;19924;-82
2022/01/08 01:25:27;;;;;;;;;;;;;;;9.42;47.85;101102.19;5044094;28;19924;-82
2022/01/08 01:27:59;;;;;;;;;;;;;;;9.08;48.15;101116.06;5060099;28;19917;-83
2022/01/08 01:30:50;;;;;;;;;;;;;;;9.32;47.57;101115.13;5044483;28;19975;-83
2022/01/08 01:41:36;;;;;;;;;;;;;;;9.45;47.90;101107.47;5052109;28;19932;-83
2022/01/08 01:49:13;;;;;;;;;;;;;;;9.52;47.42;101121.59;5067375;28;19934;-82
2022/01/08 01:51:39;;;;;;;;;;;;;;;9.86;46.76;101126.56;5066686;28;19921;-82
2022/01/08 01:54:05;;;;;;;;;;;;;;;10.05;46.64;101131.19;5046622;28;19946;-82
2022/01/08 01:56:30;;;;;;;;;;;;;;;10.35;45.42;101126.38;5046627;28;19917;-81
2022/01/08 01:58:55;;;;;;;;;;;;;;;9.91;46.17;101132.63;5046305;28;20282;-82
2022/01/08 02:01:20;;;;;;;;;;;;;;;10.16;46.17;101128.94;5047215;28;19925;-82
2022/01/08 02:03:46;;;;;;;;;;;;;;;9.68;46.90;101138.09;5065259;28;19909;-82
2022/01/08 02:06:11;;;;;;;;;;;;;;;10.28;46.04;101141.97;5064525;28;20016;-83
2022/01/08 02:08:39;;;;;;;;;;;;;;;10.47;45.64;101138.50;5064189;28;19917;-82
2022/01/08 02:11:07;;;;;;;;;;;;;;;10.12;46.38;101140.84;5046057;28;20363;-82
2022/01/08 02:13:32;;;;;;;;;;;;;;;10.84;45.17;101136.03;5045580;28;19916;-81
2022/01/08 02:16:00;;;;;;;;;;;;;;;10.51;45.37;101134.72;5063996;28;20018;-82
2022/01/08 02:18:28;;;;;;;;;;;;;;;10.77;44.97;101130.88;5045574;28;19939;-82
2022/01/08 02:20:55;;;;;;;;;;;;;;;10.34;45.54;101127.34;5045373;28;19944;-81
2022/01/08 02:23:20;;;;;;;;;;;;;;;9.73;47.46;101136.09;5045084;28;19916;-81
2022/01/08 02:25:46;;;;;;;;;;;;;;;10.36;46.83;101132.69;5045515;28;19938;-81
2022/01/08 02:28:11;;;;;;;;;;;;;;;11.05;44.89;101126.97;5044495;28;19917;-83
2022/01/08 02:30:36;;;;;;;;;;;;;;;10.84;45.07;101126.09;5045327;28;19936;-82
2022/01/08 02:33:01;;;;;;;;;;;;;;;10.41;46.55;101127.94;5044962;28;20366;-83
2022/01/08 02:35:27;;;;;;;;;;;;;;;10.63;45.26;101117.09;5044967;28;20008;-81
2022/01/08 02:37:53;;;;;;;;;;;;;;;10.54;45.83;101112.09;5046509;28;19916;-82
2022/01/08 02:40:19;;;;;;;;;;;;;;;10.24;47.02;101115.13;5063680;28;20359;-81
2022/01/08 02:42:51;;;;;;;;;;;;;;;10.40;46.25;101115.34;5063077;28;20327;-81
2022/01/08 02:45:17;;;;;;;;;;;;;;;10.47;46.20;101116.88;5061578;28;19917;-82
2022/01/08 02:47:43;;;;;;;;;;;;;;;10.38;46.54;101120.84;5045620;28;20023;-82
2022/01/08 02:50:09;;;;;;;;;;;;;;;10.45;46.35;101125.03;5064255;28;19963;-81
2022/01/08 02:52:34;;;;;;;;;;;;;;;10.77;45.18;101120.06;5046323;28;19920;-81
2022/01/08 02:54:59;;;;;;;;;;;;;;;10.54;46.19;101117.50;5047720;28;19921;-83
2022/01/08 02:57:24;;;;;;;;;;;;;;;10.89;44.93;101115.94;5046671;28;19939;-82
2022/01/08 02:59:50;;;;;;;;;;;;;;;10.96;44.96;101114.72;5047190;28;19920;-82
2022/01/08 03:02:15;;;;;;;;;;;;;;;10.96;44.65;101109.31;5046096;28;19941;-82
2022/01/08 03:04:40;;;;;;;;;;;;;;;10.56;45.75;101112.88;5046372;28;19963;-82
2022/01/08 03:07:05;;;;;;;;;;;;;;;11.05;44.75;101113.44;5046574;28;19917;-82
2022/01/08 03:09:35;;;;;;;;;;;;;;;10.82;44.81;101107.22;5046516;28;19956;-82
2022/01/08 03:12:00;;;;;;;;;;;;;;;10.43;46.13;101109.81;5063575;28;19916;-82
2022/01/08 03:14:25;;;;;;;;;;;;;;;10.78;45.33;101108.28;5045609;28;19928;-80
2022/01/08 03:16:50;;;;;;;;;;;;;;;10.18;46.63;101116.25;5046984;28;19917;-81
2022/01/08 03:19:16;;;;;;;;;;;;;;;10.64;45.57;101113.41;5045614;28;19939;-82
2022/01/08 03:21:44;;;;;;;;;;;;;;;10.66;45.21;101105.25;5062953;28;19921;-82
2022/01/08 03:24:13;;;;;;;;;;;;;;;10.79;44.92;101103.75;5047412;28;19916;-82
2022/01/08 03:26:39;;;;;;;;;;;;;;;10.51;45.50;101110.38;5047120;28;20015;-82
2022/01/08 03:29:04;;;;;;;;;;;;;;;10.52;45.51;101106.72;5046395;28;19971;-83
2022/01/08 03:31:29;;;;;;;;;;;;;;;10.06;47.03;101111.34;5045806;28;19921;-81
2022/01/08 03:33:55;;;;;;;;;;;;;;;9.69;48.24;101115.53;5046497;28;20012;-82
2022/01/08 03:36:21;;;;;;;;;;;;;;;10.05;46.81;101117.69;5045157;28;19917;-82
2022/01/08 03:38:47;;;;;;;;;;;;;;;10.37;46.83;101113.69;5045449;28;19960;-82
2022/01/08 03:41:12;;;;;;;;;;;;;;;9.78;48.21;101112.44;5062579;28;19921;-82
2022/01/08 03:43:37;;;;;;;;;;;;;;;10.66;45.90;101106.13;5041856;28;19917;-82
2022/01/08 03:46:04;;;;;;;;;;;;;;;10.78;45.04;101107.44;5042981;28;19917;-83
2022/01/08 03:48:43;;;;;;;;;;;;;;;10.60;45.59;101112.69;5060922;28;19907;-82
2022/01/08 03:51:08;;;;;;;;;;;;;;;10.73;45.19;101117.56;5042358;28;19955;-82
2022/01/08 03:53:33;;;;;;;;;;;;;;;10.49;45.80;101114.97;5041682;28;19928;-82
2022/01/08 03:55:59;;;;;;;;;;;;;;;10.60;45.42;101117.22;5041881;28;19968;-82
2022/01/08 03:58:25;;;;;;;;;;;;;;;10.25;46.38;101106.94;5042416;28;19924;-82
2022/01/08 04:00:50;;;;;;;;;;;;;;;10.44;45.92;101108.88;5041513;28;19925;-81
2022/01/08 04:03:19;;;;;;;;;;;;;;;10.36;46.05;101102.94;5041859;28;19923;-80
2022/01/08 04:05:48;;;;;;;;;;;;;;;10.37;46.00;101104.66;5060137;28;20401;-83
2022/01/08 04:08:13;;;;;;;;;;;;;;;10.16;46.68;101101.91;5062165;28;20015;-82
2022/01/08 04:10:39;;;;;;;;;;;;;;;10.32;45.96;101107.53;5046073;28;19964;-82
2022/01/08 04:13:10;;;;;;;;;;;;;;;10.16;46.42;101115.44;5045156;28;19924;-83
2022/01/08 04:15:39;;;;;;;;;;;;;;;10.16;46.61;101111.84;5044794;28;19916;-82
2022/01/08 04:18:04;;;;;;;;;;;;;;;9.33;48.73;101116.00;5045387;28;19921;-82
2022/01/08 04:20:30;;;;;;;;;;;;;;;10.05;47.65;101112.28;5045877;28;19924;-82
2022/01/08 04:22:55;;;;;;;;;;;;;;;9.90;47.57;101121.88;5045489;28;19976;-81
2022/01/08 04:25:22;;;;;;;;;;;;;;;9.99;47.39;101126.06;5063640;28;20322;-82
2022/01/08 04:27:47;;;;;;;;;;;;;;;9.43;48.58;101130.06;5045369;28;19917;-81
2022/01/08 04:30:12;;;;;;;;;;;;;;;10.06;47.44;101127.56;5045997;28;20320;-82
2022/01/08 04:32:39;;;;;;;;;;;;;;;10.11;47.54;101136.34;5062742;28;20453;-81
2022/01/08 04:35:04;;;;;;;;;;;;;;;10.49;46.26;101136.59;5045654;28;20006;-83
2022/01/08 04:37:30;;;;;;;;;;;;;;;10.59;45.68;101142.50;5062358;28;19920;-83
2022/01/08 04:39:55;;;;;;;;;;;;;;;10.46;45.78;101139.44;5045512;28;19917;-80
2022/01/08 04:42:20;;;;;;;;;;;;;;;10.44;45.99;101144.91;5045657;28;19920;-82
2022/01/08 04:44:45;;;;;;;;;;;;;;;10.43;45.92;101156.69;5064428;28;19917;-82
2022/01/08 04:47:11;;;;;;;;;;;;;;;10.37;46.16;101148.84;5062767;28;20306;-82
2022/01/08 04:49:36;;;;;;;;;;;;;;;10.24;46.33;101153.84;5044588;28;19943;-82
2022/01/08 04:52:02;;;;;;;;;;;;;;;10.20;46.06;101160.31;5045932;28;19917;-83
2022/01/08 04:54:27;;;;;;;;;;;;;;;10.13;46.59;101160.63;5045504;28;19924;-84
2022/01/08 04:56:53;;;;;;;;;;;;;;;9.30;48.86;101162.94;5045705;28;19917;-82
2022/01/08 04:59:18;;;;;;;;;;;;;;;9.55;48.08;101157.47;5045801;28;20444;-82
2022/01/08 05:01:44;;;;;;;;;;;;;;;9.76;47.63;101149.47;5063521;28;20361;-82
2022/01/08 05:04:09;;;;;;;;;;;;;;;9.91;47.65;101146.16;5062321;28;19917;-83
2022/01/08 05:06:34;;;;;;;;;;;;;;;9.91;47.15;101146.16;5044754;28;19924;-83
2022/01/08 05:09:00;;;;;;;;;;;;;;;9.85;47.34;101142.81;5045186;28;19917;-83
2022/01/08 05:11:27;;;;;;;;;;;;;;;9.89;47.10;101141.78;5044573;28;19935;-82
2022/01/08 05:13:53;;;;;;;;;;;;;;;10.30;46.47;101141.91;5045232;28;19917;-82
2022/01/08 05:16:19;;;;;;;;;;;;;;;10.09;46.76;101143.66;5045135;28;19966;-83
2022/01/08 05:18:44;;;;;;;;;;;;;;;9.98;47.37;101140.50;5044501;28;19921;-83
2022/01/08 05:21:21;;;;;;;;;;;;;;;9.67;47.74;101139.03;5042539;28;19921;-81
2022/01/08 05:23:46;;;;;;;;;;;;;;;9.94;47.72;101145.16;5044144;28;20015;-82
2022/01/08 05:26:11;;;;;;;;;;;;;;;9.63;48.28;101150.88;5046481;28;19951;-85
2022/01/08 05:28:37;;;;;;;;;;;;;;;9.10;49.46;101169.03;5063764;28;19956;-82
2022/01/08 05:31:02;;;;;;;;;;;;;;;9.14;50.09;101170.69;5062666;28;20043;-83
2022/01/08 05:33:28;;;;;;;;;;;;;;;9.23;49.61;101170.34;5062929;28;19924;-84
2022/01/08 05:35:53;;;;;;;;;;;;;;;9.10;50.35;101174.44;5045066;28;19917;-82
2022/01/08 05:38:18;;;;;;;;;;;;;;;8.92;51.00;101175.09;5044980;28;20240;-83
2022/01/08 05:40:44;;;;;;;;;;;;;;;9.10;50.05;101179.84;5043768;28;19927;-83
2022/01/08 05:43:09;;;;;;;;;;;;;;;9.23;50.21;101177.59;5049327;28;20266;-84
2022/01/08 05:45:34;;;;;;;;;;;;;;;9.00;50.53;101178.44;5065156;28;19980;-84
2022/01/08 05:47:59;;;;;;;;;;;;;;;9.23;49.57;101177.59;5064792;28;19921;-83
2022/01/08 05:50:25;;;;;;;;;;;;;;;9.65;49.08;101176.03;5062540;28;19908;-81
2022/01/08 05:52:50;;;;;;;;;;;;;;;9.02;50.28;101169.31;5064385;28;19966;-81
2022/01/08 05:55:15;;;;;;;;;;;;;;;9.26;50.13;101171.19;5081338;28;19917;-83
2022/01/08 05:57:41;;;;;;;;;;;;;;;9.13;50.30;101165.34;5064411;28;19938;-83
2022/01/08 06:00:07;;;;;;;;;;;;;;;9.57;49.47;101169.09;5065216;28;19979;-84
2022/01/08 06:02:32;;;;;;;;;;;;;;;9.54;49.51;101165.63;5064494;28;19916;-83
2022/01/08 06:04:57;;;;;;;;;;;;;;;9.70;49.18;101157.81;5066105;28;20491;-83
2022/01/08 06:07:23;;;;;;;;;;;;;;;9.17;50.44;101149.00;5065452;28;20492;-83
2022/01/08 06:09:48;;;;;;;;;;;;;;;8.94;51.69;101154.38;5064881;28;20393;-84
2022/01/08 06:12:16;;;;;;;;;;;;;;;8.69;51.38;101156.06;5064374;28;20286;-83
2022/01/08 06:14:42;;;;;;;;;;;;;;;8.82;51.77;101148.44;5064346;28;20282;-83
2022/01/08 06:17:07;;;;;;;;;;;;;;;9.08;50.91;101149.31;5063821;28;19924;-83
2022/01/08 06:19:32;;;;;;;;;;;;;;;9.23;50.55;101148.75;5063538;28;20029;-83
2022/01/08 06:21:58;;;;;;;;;;;;;;;9.52;49.67;101152.16;5063835;28;19963;-84
2022/01/08 06:24:23;;;;;;;;;;;;;;;10.30;47.48;101141.91;5063494;28;19920;-83
2022/01/08 06:26:48;;;;;;;;;;;;;;;9.56;49.18;101143.03;5063120;28;20281;-82
2022/01/08 06:29:14;;;;;;;;;;;;;;;9.48;49.86;101137.06;5081175;28;19927;-84
2022/01/08 06:31:39;;;;;;;;;;;;;;;9.46;50.23;101138.03;5061712;28;20046;-83
2022/01/08 06:34:04;;;;;;;;;;;;;;;9.48;49.74;101141.53;5062970;28;19916;-83
2022/01/08 06:36:29;;;;;;;;;;;;;;;9.58;49.75;101138.44;5063206;28;20320;-83
2022/01/08 06:38:54;;;;;;;;;;;;;;;9.21;51.04;101139.84;5062533;28;19962;-82
2022/01/08 06:41:20;;;;;;;;;;;;;;;9.37;50.12;101134.72;5061913;28;19929;-83
2022/01/08 06:43:45;;;;;;;;;;;;;;;9.18;51.06;101136.38;5063086;28;19916;-83
2022/01/08 06:46:10;;;;;;;;;;;;;;;9.41;50.16;101135.50;5079726;28;19931;-83
2022/01/08 06:48:36;;;;;;;;;;;;;;;9.05;51.00;101127.84;5063188;28;20413;-83
2022/01/08 06:51:01;;;;;;;;;;;;;;;8.72;52.34;101136.22;5061600;28;19917;-83
2022/01/08 06:53:26;;;;;;;;;;;;;;;9.15;51.19;101129.28;5062202;28;19917;-83
2022/01/08 06:55:52;;;;;;;;;;;;;;;9.17;51.22;101122.00;5080507;28;20007;-84
2022/01/08 06:58:19;;;;;;;;;;;;;;;9.20;51.24;101124.56;5061981;28;19916;-83
2022/01/08 07:00:45;;;;;;;;;;;;;;;9.33;51.15;101126.81;5080129;28;19951;-84
2022/01/08 07:03:11;;;;;;;;;;;;;;;9.16;52.06;101127.44;5064087;28;20362;-83
2022/01/08 07:05:37;;;;;;;;;;;;;;;9.15;51.57;101117.59;5063731;28;19962;-84
2022/01/08 07:08:02;;;;;;;;;;;;;;;8.92;51.87;101121.13;5064511;28;19923;-82
2022/01/08 07:10:27;;;;;;;;;;;;;;;9.09;52.31;101124.13;5082618;28;20003;-83
2022/01/08 07:12:53;;;;;;;;;;;;;;;9.50;51.33;101120.78;5064800;28;19917;-84
2022/01/08 07:15:18;;;;;;;;;;;;;;;9.69;50.97;101110.13;5062377;28;19932;-83
2022/01/08 07:17:43;;;;;;;;;;;;;;;9.30;52.13;101113.44;5065135;28;19979;-83
2022/01/08 07:20:10;;;;;;;;;;;;;;;9.54;51.29;101104.41;5064552;28;19948;-84
2022/01/08 07:22:35;;;;;;;;;;;;;;;9.40;52.27;101110.34;5061732;28;19917;-83
2022/01/08 07:25:03;;;;;;;;;;;;;;;9.53;51.84;101115.25;5064591;28;19917;-83
2022/01/08 07:27:30;;;;;;;;;;;;;;;9.85;51.38;101111.28;5063526;28;19917;-84
2022/01/08 07:29:55;;;;;;;;;;;;;;;9.67;51.63;101110.19;5063811;28;19973;-83
2022/01/08 07:32:20;;;;;;;;;;;;;;;9.38;52.64;101111.34;5064017;28;19967;-83
2022/01/08 07:34:46;;;;;;;;;;;;;;;9.32;53.19;101103.47;5064619;28;19917;-83
2022/01/08 07:37:11;;;;;;;;;;;;;;;9.44;52.87;101097.59;5063472;28;19931;-84
2022/01/08 07:39:36;;;;;;;;;;;;;;;9.44;52.80;101094.88;5064075;28;19923;-83
2022/01/08 07:42:02;;;;;;;;;;;;;;;9.29;53.82;101100.88;5062463;28;19920;-83
2022/01/08 07:44:27;;;;;;;;;;;;;;;9.24;53.56;101101.06;5063681;28;19916;-84
2022/01/08 07:46:52;;;;;;;;;;;;;;;9.27;53.91;101094.66;5063724;28;19927;-83
2022/01/08 07:49:17;;;;;;;;;;;;;;;9.08;54.06;101100.75;5064078;28;19955;-81
2022/01/08 07:51:43;;;;;;;;;;;;;;;9.14;54.16;101099.66;5063457;28;20382;-83
2022/01/08 07:54:08;;;;;;;;;;;;;;;9.17;54.87;101096.84;5061999;28;20294;-84
2022/01/08 07:56:35;;;;;;;;;;;;;;;8.73;55.53;101094.84;5063609;28;19920;-83
2022/01/08 07:59:00;;;;;;;;;;;;;;;9.21;55.25;101095.78;5064782;28;19917;-83
2022/01/08 08:01:26;;;;;;;;;;;;;;;8.59;56.12;101097.13;5063334;28;20027;-84
2022/01/08 08:03:51;;;;;;;;;;;;;;;8.96;55.56;101090.41;5059687;28;19942;-83
2022/01/08 08:06:16;;;;;;;;;;;;;;;8.82;56.40;101083.72;5058315;28;19916;-84
2022/01/08 08:08:44;;;;;;;;;;;;;;;9.28;55.08;101088.31;5074453;28;19916;-83
2022/01/08 08:11:09;;;;;;;;;;;;;;;8.97;55.67;101076.00;5058133;28;19917;-83
2022/01/08 08:13:34;;;;;;;;;;;;;;;8.56;56.96;101072.97;5077036;28;19924;-84
2022/01/08 08:16:00;;;;;;;;;;;;;;;8.15;58.65;101071.66;5058697;28;19916;-84
2022/01/08 08:18:26;;;;;;;;;;;;;;;8.45;58.67;101076.03;5058776;28;19917;-83
2022/01/08 08:20:51;;;;;;;;;;;;;;;8.39;58.37;101074.41;5055964;28;19920;-84
2022/01/08 08:23:17;;;;;;;;;;;;;;;8.68;57.83;101064.44;5039304;28;19966;-84
2022/01/08 08:25:42;;;;;;;;;;;;;;;7.96;60.05;101065.09;5037755;28;20006;-82
2022/01/08 08:28:19;;;;;;;;;;;;;;;8.29;59.05;101056.81;5038986;28;19939;-84
2022/01/08 08:30:44;;;;;;;;;;;;;;;8.50;59.74;101057.91;5036791;28;19935;-82
2022/01/08 08:33:10;;;;;;;;;;;;;;;8.33;58.60;101062.03;5055052;28;20286;-81
2022/01/08 08:35:35;;;;;;;;;;;;;;;8.55;58.75;101049.66;5050584;28;20018;-83
2022/01/08 08:38:00;;;;;;;;;;;;;;;8.39;59.26;101051.97;5057699;28;19924;-83
2022/01/08 08:40:26;;;;;;;;;;;;;;;8.67;59.91;101039.28;5058548;28;19939;-83
2022/01/08 08:42:51;;;;;;;;;;;;;;;8.19;61.22;101040.06;5053819;28;19975;-82
2022/01/08 08:45:16;;;;;;;;;;;;;;;8.76;59.23;101034.50;5054402;28;20011;-83
2022/01/08 08:47:41;;;;;;;;;;;;;;;8.08;62.35;101034.19;5053756;28;20298;-85
2022/01/08 08:50:08;;;;;;;;;;;;;;;8.11;61.03;101029.56;5051846;28;19943;-82
2022/01/08 08:52:33;;;;;;;;;;;;;;;8.26;61.69;101035.38;5051277;28;20058;-83
2022/01/08 08:55:05;;;;;;;;;;;;;;;8.60;60.41;101026.09;5056550;28;19948;-83
2022/01/08 08:57:31;;;;;;;;;;;;;;;8.44;60.44;101029.34;5057441;28;19917;-84
2022/01/08 08:59:56;;;;;;;;;;;;;;;8.25;60.82;101029.06;5053733;28;20559;-82
2022/01/08 09:02:22;;;;;;;;;;;;;;;8.74;59.93;101025.56;5052860;28;19983;-83
2022/01/08 09:04:47;;;;;;;;;;;;;;;8.32;60.73;101025.22;5056679;28;19921;-83
2022/01/08 09:07:13;;;;;;;;;;;;;;;8.37;61.14;101019.69;5057548;28;19928;-83
2022/01/08 09:09:38;;;;;;;;;;;;;;;8.57;61.89;101008.19;5055615;28;20369;-83
2022/01/08 09:12:04;;;;;;;;;;;;;;;8.46;61.63;101010.41;5057766;28;19963;-82
2022/01/08 09:14:32;;;;;;;;;;;;;;;8.20;63.04;101000.50;5059009;28;19917;-84
2022/01/08 09:17:02;;;;;;;;;;;;;;;8.27;63.41;100985.88;5058423;28;19917;-83
2022/01/08 09:19:30;;;;;;;;;;;;;;;8.68;61.85;100984.41;5056016;28;20374;-85
2022/01/08 09:21:55;;;;;;;;;;;;;;;9.04;59.68;100980.34;5056506;28;19921;-82
2022/01/08 09:24:23;;;;;;;;;;;;;;;8.87;60.69;100981.88;5057542;28;20457;-84
2022/01/08 09:26:49;;;;;;;;;;;;;;;9.25;58.95;100984.03;5057002;28;19962;-87
2022/01/08 09:29:15;;;;;;;;;;;;;;;8.78;60.47;100971.44;5058900;28;19943;-84
2022/01/08 09:31:40;;;;;;;;;;;;;;;8.97;60.12;100959.97;5058534;28;20028;-85
2022/01/08 09:34:06;;;;;;;;;;;;;;;8.83;60.53;100961.38;5057644;28;19927;-84
2022/01/08 09:36:32;;;;;;;;;;;;;;;8.95;60.82;100953.72;5058791;28;19917;-84
2022/01/08 09:38:57;;;;;;;;;;;;;;;8.87;60.72;100951.34;5055959;28;20362;-84
2022/01/08 09:41:23;;;;;;;;;;;;;;;8.94;60.15;100939.38;5057186;28;19929;-85
2022/01/08 09:43:48;;;;;;;;;;;;;;;8.43;63.02;100940.41;5059230;28;19940;-84
2022/01/08 09:46:15;;;;;;;;;;;;;;;8.48;62.58;100944.72;5074221;28;19917;-82
2022/01/08 09:48:41;;;;;;;;;;;;;;;8.77;60.27;100934.66;5058591;28;19928;-82
2022/01/08 09:51:06;;;;;;;;;;;;;;;8.87;60.84;100924.34;5057747;28;19917;-84
2022/01/08 09:53:31;;;;;;;;;;;;;;;8.93;60.66;100929.50;5074814;28;19923;-84
2022/01/08 09:55:56;;;;;;;;;;;;;;;8.82;60.09;100921.84;5057457;28;19924;-84
2022/01/08 09:58:22;;;;;;;;;;;;;;;8.77;60.77;100907.66;5058300;28;19952;-85
2022/01/08 10:00:47;;;;;;;;;;;;;;;8.78;60.28;100909.41;5056921;28;19924;-82
2022/01/08 10:03:13;;;;;;;;;;;;;;;9.08;60.46;100906.44;5057574;28;19923;-83
2022/01/08 10:05:45;;;;;;;;;;;;;;;8.49;63.25;100906.03;5056655;28;19917;-82
2022/01/08 10:08:12;;;;;;;;;;;;;;;8.88;60.17;100901.84;5057805;28;20475;-81
2022/01/08 10:10:37;;;;;;;;;;;;;;;8.97;59.81;100887.13;5056464;28;19990;-81
2022/01/08 10:13:03;;;;;;;;;;;;;;;8.80;59.83;100879.66;5055895;28;19917;-81
2022/01/08 10:18:31;;;;;;;;;;;;;;;8.51;61.39;100860.13;5055587;28;20465;-81
2022/01/08 10:20:57;;;;;;;;;;;;;;;8.52;60.19;100851.97;5056678;28;19917;-81
2022/01/08 10:23:23;;;;;;;;;;;;;;;8.35;61.20;100851.72;5055388;28;19917;-82
2022/01/08 10:26:03;;;;;;;;;;;;;;;8.36;60.46;100842.69;5055902;28;20441;-81
2022/01/08 10:28:34;;;;;;;;;;;;;;;8.89;58.98;100829.88;5055237;28;19917;-82
2022/01/08 10:31:21;;;;;;;;;;;;;;;8.80;60.08;100820.31;5054640;28;20309;-82
2022/01/08 10:33:48;;;;;;;;;;;;;;;9.21;58.92;100815.91;5054442;28;19917;-81
2022/01/08 10:36:14;;;;;;;;;;;;;;;9.42;57.79;100807.84;5055252;28;19916;-82
2022/01/08 10:38:40;;;;;;;;;;;;;;;8.58;60.10;100823.03;5055557;28;19924;-81
2022/01/08 10:41:11;;;;;;;;;;;;;;;8.47;60.49;100808.16;5054297;28;19943;-81
2022/01/08 10:43:36;;;;;;;;;;;;;;;8.95;59.00;100797.25;5056645;28;19916;-82
2022/01/08 10:46:09;;;;;;;;;;;;;;;9.01;58.78;100783.50;5058099;28;19970;-81
2022/01/08 10:48:35;;;;;;;;;;;;;;;9.60;56.71;100776.44;5057579;28;20406;-81
2022/01/08 10:51:08;;;;;;;;;;;;;;;9.76;55.94;100769.38;5056664;28;19967;-83
2022/01/08 10:53:52;;;;;;;;;;;;;;;9.54;56.36;100758.69;5056629;28;20016;-87
2022/01/08 10:56:31;;;;;;;;;;;;;;;9.10;57.31;100766.03;5055707;28;19924;-82
2022/01/08 10:59:01;;;;;;;;;;;;;;;9.51;55.88;100742.63;5056242;28;19920;-82
2022/01/08 11:01:39;;;;;;;;;;;;;;;9.79;55.41;100741.38;5054510;28;20016;-81
2022/01/08 11:04:06;;;;;;;;;;;;;;;9.58;55.69;100724.31;5054538;28;19921;-83
2022/01/08 11:06:31;;;;;;;;;;;;;;;9.45;55.45;100726.72;5058003;28;19921;-84
2022/01/08 11:09:00;;;;;;;;;;;;;;;9.22;55.46;100714.22;5056924;28;20442;-83
2022/01/08 11:11:29;;;;;;;;;;;;;;;9.47;55.48;100708.59;5056144;28;19917;-83
2022/01/08 11:13:55;;;;;;;;;;;;;;;9.26;54.96;100696.09;5057203;28;19925;-83
2022/01/08 11:16:20;;;;;;;;;;;;;;;9.03;55.93;100692.56;5055375;28;19917;-82
2022/01/08 11:18:46;;;;;;;;;;;;;;;9.77;55.05;100683.84;5054188;28;19986;-82
2022/01/08 11:21:11;;;;;;;;;;;;;;;9.81;54.79;100680.03;5055036;28;19924;-81
2022/01/08 11:23:36;;;;;;;;;;;;;;;9.08;55.78;100677.03;5053962;28;19921;-83
2022/01/08 11:26:02;;;;;;;;;;;;;;;9.76;55.29;100665.88;5053903;28;19916;-83
2022/01/08 11:28:34;;;;;;;;;;;;;;;9.70;55.38;100655.34;5054038;28;19974;-83
2022/01/08 11:31:01;;;;;;;;;;;;;;;9.68;55.22;100660.81;5055350;28;19932;-82
2022/01/08 11:33:34;;;;;;;;;;;;;;;9.45;55.68;100653.81;5053910;28;20394;-83
2022/01/08 11:35:59;;;;;;;;;;;;;;;9.58;55.63;100644.16;5055648;28;19917;-82
2022/01/08 11:38:26;;;;;;;;;;;;;;;9.53;55.97;100630.00;5054549;28;19973;-82
2022/01/08 11:40:53;;;;;;;;;;;;;;;9.72;55.36;100642.63;5055417;28;19932;-82
2022/01/08 11:43:19;;;;;;;;;;;;;;;9.44;56.31;100624.19;5057281;28;19923;-82
2022/01/08 11:46:07;;;;;;;;;;;;;;;9.25;57.11;100621.44;5057323;28;19989;-83
2022/01/08 11:48:37;;;;;;;;;;;;;;;9.56;57.47;100594.75;5064427;28;19916;-82
2022/01/08 11:51:04;;;;;;;;;;;;;;;9.29;58.03;100593.38;5057693;28;19916;-82
2022/01/08 11:53:31;;;;;;;;;;;;;;;9.01;59.86;100567.63;5056601;28;19959;-83
2022/01/08 11:55:56;;;;;;;;;;;;;;;8.82;60.11;100568.47;5075657;28;19923;-82
2022/01/08 11:58:26;;;;;;;;;;;;;;;8.64;68.26;100564.75;5058687;28;20011;-82
2022/01/08 12:01:10;;;;;;;;;;;;;;;8.47;63.00;100548.44;5057094;28;20352;-83
2022/01/08 12:03:36;;;;;;;;;;;;;;;9.29;60.95;100536.69;5050634;28;20023;-82
2022/01/08 12:06:20;;;;;;;;;;;;;;;8.76;62.29;100520.19;5053976;28;19982;-82
2022/01/08 12:08:51;;;;;;;;;;;;;;;9.38;61.26;100510.09;5057308;28;20458;-82
2022/01/08 12:11:17;;;;;;;;;;;;;;;8.99;61.03;100507.47;5057469;28;19939;-83
2022/01/08 12:13:46;;;;;;;;;;;;;;;8.66;63.10;100495.44;5076466;28;20354;-83
2022/01/08 12:16:30;;;;;;;;;;;;;;;8.57;63.38;100484.22;5076671;28;20015;-82
2022/01/08 12:18:55;;;;;;;;;;;;;;;8.76;63.81;100466.25;5058330;28;20463;-82
2022/01/08 12:21:34;;;;;;;;;;;;;;;8.63;64.38;100447.06;5058457;28;19916;-82
2022/01/08 12:24:19;;;;;;;;;;;;;;;9.21;62.51;100446.13;5058602;28;19916;-83
2022/01/08 12:26:45;;;;;;;;;;;;;;;8.87;63.89;100431.53;5057199;28;19927;-83
2022/01/08 12:29:10;;;;;;;;;;;;;;;8.32;64.91;100431.38;5057196;28;19921;-83
2022/01/08 12:31:42;;;;;;;;;;;;;;;8.75;63.88;100407.84;5060670;28;19924;-83
2022/01/08 12:34:44;;;;;;;;;;;;;;;8.09;66.69;100421.59;5060881;28;19948;-82
2022/01/08 12:37:11;;;;;;;;;;;;;;;8.12;65.37;100421.47;5043030;28;19923;-87
2022/01/08 12:39:48;;;;;;;;;;;;;;;8.28;66.68;100390.19;5061107;28;19980;-83
2022/01/08 12:42:20;;;;;;;;;;;;;;;9.15;63.93;100380.78;5061393;28;19921;-84
2022/01/08 12:45:04;;;;;;;;;;;;;;;9.04;64.47;100375.91;5080687;28;19924;-83
2022/01/08 12:47:48;;;;;;;;;;;;;;;8.68;66.01;100363.25;5062075;28;19916;-83
2022/01/08 12:50:24;;;;;;;;;;;;;;;8.14;69.70;100363.88;5080288;28;20320;-83
2022/01/08 12:53:13;;;;;;;;;;;;;;;8.86;67.30;100345.31;5061675;28;20397;-82
2022/01/08 12:55:38;;;;;;;;;;;;;;;8.63;66.40;100335.63;5046101;28;20410;-83
2022/01/08 12:58:14;;;;;;;;;;;;;;;8.26;67.38;100318.47;5080072;28;19965;-81
2022/01/08 13:00:51;;;;;;;;;;;;;;;8.43;68.12;100313.16;5062313;28;19924;-83